sensor_id;sensor_type;location;lat;lon;timestamp;pressure;altitude;pressure_sealevel;temperature;humidity
34506;BME280;20748;42.632;23.198;2023-01-30T00:00:42;92154.91;;;-2.38;100.00
34506;BME280;20748;42.632;23.198;2023-01-30T00:03:14;92154.47;;;-2.35;100.00
34506;BME280;20748;42.632;23.198;2023-01-30T00:05:46;92155.56;;;-2.43;100.00
34506;BME280;20748;42.632;23.198;2023-01-30T00:08:18;92159.88;;;-2.43;100.00
34506;BME280;20748;42.632;23.198;2023-01-30T00:10:50;92164.78;;;-2.41;100.00
34506;BME280;20748;42.632;23.198;2023-01-30T00:13:22;92152.56;;;-2.39;100.00
34506;BME280;20748;42.632;23.198;2023-01-30T00:15:55;92156.38;;;-2.30;100.00
34506;BME280;20748;42.632;23.198;2023-01-30T00:18:27;92152.84;;;-2.48;100.00
34506;BME280;20748;42.632;23.198;2023-01-30T00:21:00;92152.13;;;-2.36;100.00
34506;BME280;20748;42.632;23.198;2023-01-30T00:23:33;92153.50;;;-2.52;100.00
34506;BME280;20748;42.632;23.198;2023-01-30T00:26:06;92151.13;;;-2.35;100.00
34506;BME280;20748;42.632;23.198;2023-01-30T00:28:38;92149.50;;;-2.30;100.00
34506;BME280;20748;42.632;23.198;2023-01-30T00:31:12;92145.75;;;-2.46;100.00
34506;BME280;20748;42.632;23.198;2023-01-30T00:33:44;92146.38;;;-2.32;100.00
34506;BME280;20748;42.632;23.198;2023-01-30T00:36:16;92148.31;;;-2.27;100.00
34506;BME280;20748;42.632;23.198;2023-01-30T00:38:48;92151.34;;;-2.18;100.00
34506;BME280;20748;42.632;23.198;2023-01-30T00:41:21;92146.56;;;-2.14;100.00
34506;BME280;20748;42.632;23.198;2023-01-30T00:43:53;92150.91;;;-2.15;100.00
34506;BME280;20748;42.632;23.198;2023-01-30T00:46:44;92142.94;;;-2.07;100.00
34506;BME280;20748;42.632;23.198;2023-01-30T00:49:35;92136.19;;;-2.01;100.00
34506;BME280;20748;42.632;23.198;2023-01-30T00:52:07;92139.13;;;-2.16;100.00
34506;BME280;20748;42.632;23.198;2023-01-30T00:54:39;92134.13;;;-2.11;100.00
34506;BME280;20748;42.632;23.198;2023-01-30T00:57:11;92121.44;;;-2.18;100.00
34506;BME280;20748;42.632;23.198;2023-01-30T00:59:43;92124.56;;;-2.34;100.00
34506;BME280;20748;42.632;23.198;2023-01-30T01:02:16;92128.84;;;-2.47;100.00
34506;BME280;20748;42.632;23.198;2023-01-30T01:04:48;92125.69;;;-2.42;100.00
34506;BME280;20748;42.632;23.198;2023-01-30T01:07:22;92120.69;;;-2.37;100.00
34506;BME280;20748;42.632;23.198;2023-01-30T01:09:54;92123.03;;;-2.54;100.00
34506;BME280;20748;42.632;23.198;2023-01-30T01:12:26;92122.13;;;-2.41;100.00
34506;BME280;20748;42.632;23.198;2023-01-30T01:14:58;92126.09;;;-2.45;100.00
34506;BME280;20748;42.632;23.198;2023-01-30T01:17:33;92116.25;;;-2.79;100.00
34506;BME280;20748;42.632;23.198;2023-01-30T01:20:05;92105.22;;;-2.98;100.00
34506;BME280;20748;42.632;23.198;2023-01-30T01:22:38;92108.91;;;-3.13;100.00
34506;BME280;20748;42.632;23.198;2023-01-30T01:25:10;92108.22;;;-3.01;100.00
34506;BME280;20748;42.632;23.198;2023-01-30T01:27:44;92105.00;;;-3.15;100.00
34506;BME280;20748;42.632;23.198;2023-01-30T01:30:16;92110.63;;;-3.06;100.00
34506;BME280;20748;42.632;23.198;2023-01-30T01:32:49;92101.81;;;-3.11;100.00
34506;BME280;20748;42.632;23.198;2023-01-30T01:35:21;92097.00;;;-3.19;100.00
34506;BME280;20748;42.632;23.198;2023-01-30T01:37:55;92102.63;;;-3.10;100.00
34506;BME280;20748;42.632;23.198;2023-01-30T01:40:27;92097.22;;;-3.20;100.00
34506;BME280;20748;42.632;23.198;2023-01-30T01:43:18;92095.38;;;-3.13;100.00
34506;BME280;20748;42.632;23.198;2023-01-30T01:45:51;92092.34;;;-3.29;100.00
34506;BME280;20748;42.632;23.198;2023-01-30T01:48:26;92105.44;;;-3.18;100.00
34506;BME280;20748;42.632;23.198;2023-01-30T01:50:59;92099.41;;;-3.05;100.00
34506;BME280;20748;42.632;23.198;2023-01-30T01:53:33;92099.22;;;-3.04;100.00
34506;BME280;20748;42.632;23.198;2023-01-30T01:56:07;92096.78;;;-2.99;100.00
34506;BME280;20748;42.632;23.198;2023-01-30T01:58:40;92090.97;;;-2.87;100.00
34506;BME280;20748;42.632;23.198;2023-01-30T02:01:13;92096.47;;;-2.84;100.00
34506;BME280;20748;42.632;23.198;2023-01-30T02:03:48;92085.00;;;-2.81;100.00
34506;BME280;20748;42.632;23.198;2023-01-30T02:06:21;92081.41;;;-2.73;100.00
34506;BME280;20748;42.632;23.198;2023-01-30T02:08:54;92094.59;;;-2.76;100.00
34506;BME280;20748;42.632;23.198;2023-01-30T02:11:30;92094.31;;;-2.68;100.00
34506;BME280;20748;42.632;23.198;2023-01-30T02:14:02;92090.91;;;-2.80;100.00
34506;BME280;20748;42.632;23.198;2023-01-30T02:16:35;92092.81;;;-2.76;100.00
34506;BME280;20748;42.632;23.198;2023-01-30T02:19:10;92091.34;;;-2.84;100.00
34506;BME280;20748;42.632;23.198;2023-01-30T02:24:45;92086.84;;;-3.07;100.00
34506;BME280;20748;42.632;23.198;2023-01-30T02:27:22;92083.09;;;-2.86;100.00
34506;BME280;20748;42.632;23.198;2023-01-30T02:30:13;92089.34;;;-2.81;100.00
34506;BME280;20748;42.632;23.198;2023-01-30T02:32:57;92085.75;;;-2.74;100.00
34506;BME280;20748;42.632;23.198;2023-01-30T02:35:34;92083.81;;;-2.78;100.00
34506;BME280;20748;42.632;23.198;2023-01-30T02:38:12;92084.22;;;-2.63;100.00
34506;BME280;20748;42.632;23.198;2023-01-30T02:40:48;92075.06;;;-2.52;100.00
34506;BME280;20748;42.632;23.198;2023-01-30T02:43:24;92077.72;;;-2.59;100.00
34506;BME280;20748;42.632;23.198;2023-01-30T02:45:59;92076.50;;;-2.56;100.00
34506;BME280;20748;42.632;23.198;2023-01-30T02:48:34;92071.16;;;-2.54;100.00
34506;BME280;20748;42.632;23.198;2023-01-30T02:51:09;92079.97;;;-2.50;100.00
34506;BME280;20748;42.632;23.198;2023-01-30T02:53:44;92072.63;;;-2.47;100.00
34506;BME280;20748;42.632;23.198;2023-01-30T02:56:17;92079.09;;;-2.44;100.00
34506;BME280;20748;42.632;23.198;2023-01-30T02:58:51;92075.88;;;-2.39;100.00
34506;BME280;20748;42.632;23.198;2023-01-30T03:01:30;92079.16;;;-2.32;100.00
34506;BME280;20748;42.632;23.198;2023-01-30T03:04:08;92085.63;;;-2.30;100.00
34506;BME280;20748;42.632;23.198;2023-01-30T03:06:54;92084.16;;;-2.25;100.00
34506;BME280;20748;42.632;23.198;2023-01-30T03:09:35;92085.03;;;-2.32;100.00
34506;BME280;20748;42.632;23.198;2023-01-30T03:12:10;92094.88;;;-2.47;100.00
34506;BME280;20748;42.632;23.198;2023-01-30T03:14:47;92088.19;;;-2.48;100.00
34506;BME280;20748;42.632;23.198;2023-01-30T03:17:22;92079.91;;;-2.62;100.00
34506;BME280;20748;42.632;23.198;2023-01-30T03:19:58;92070.34;;;-2.86;100.00
34506;BME280;20748;42.632;23.198;2023-01-30T03:22:30;92075.56;;;-2.62;100.00
34506;BME280;20748;42.632;23.198;2023-01-30T03:25:03;92063.94;;;-2.58;100.00
34506;BME280;20748;42.632;23.198;2023-01-30T03:27:35;92055.94;;;-2.61;100.00
34506;BME280;20748;42.632;23.198;2023-01-30T03:30:09;92059.97;;;-2.53;100.00
34506;BME280;20748;42.632;23.198;2023-01-30T03:32:42;92057.47;;;-2.60;99.75
34506;BME280;20748;42.632;23.198;2023-01-30T03:35:15;92053.84;;;-2.52;99.54
34506;BME280;20748;42.632;23.198;2023-01-30T03:37:48;92046.53;;;-2.49;99.78
34506;BME280;20748;42.632;23.198;2023-01-30T03:40:22;92044.19;;;-2.50;99.42
34506;BME280;20748;42.632;23.198;2023-01-30T03:42:55;92040.00;;;-2.45;99.79
34506;BME280;20748;42.632;23.198;2023-01-30T03:45:27;92052.19;;;-2.47;99.25
34506;BME280;20748;42.632;23.198;2023-01-30T03:48:00;92048.16;;;-2.54;99.38
34506;BME280;20748;42.632;23.198;2023-01-30T03:50:33;92049.44;;;-2.45;99.51
34506;BME280;20748;42.632;23.198;2023-01-30T03:53:05;92045.47;;;-2.41;99.55
34506;BME280;20748;42.632;23.198;2023-01-30T03:55:37;92035.66;;;-2.44;100.00
34506;BME280;20748;42.632;23.198;2023-01-30T03:58:10;92037.22;;;-2.43;99.44
34506;BME280;20748;42.632;23.198;2023-01-30T04:00:43;92039.41;;;-2.47;98.05
34506;BME280;20748;42.632;23.198;2023-01-30T04:03:17;92037.06;;;-2.48;98.09
34506;BME280;20748;42.632;23.198;2023-01-30T04:05:49;92034.41;;;-2.53;99.37
34506;BME280;20748;42.632;23.198;2023-01-30T04:08:21;92039.81;;;-2.62;99.11
34506;BME280;20748;42.632;23.198;2023-01-30T04:10:53;92037.06;;;-2.79;100.00
34506;BME280;20748;42.632;23.198;2023-01-30T04:13:27;92034.09;;;-2.94;100.00
34506;BME280;20748;42.632;23.198;2023-01-30T04:16:15;92032.69;;;-3.09;100.00
34506;BME280;20748;42.632;23.198;2023-01-30T04:19:06;92034.97;;;-3.19;100.00
34506;BME280;20748;42.632;23.198;2023-01-30T04:21:39;92032.47;;;-3.26;100.00
34506;BME280;20748;42.632;23.198;2023-01-30T04:24:11;92041.34;;;-3.10;100.00
34506;BME280;20748;42.632;23.198;2023-01-30T04:26:43;92040.97;;;-3.14;100.00
34506;BME280;20748;42.632;23.198;2023-01-30T04:29:16;92030.50;;;-3.05;100.00
34506;BME280;20748;42.632;23.198;2023-01-30T04:31:49;92036.50;;;-3.00;100.00
34506;BME280;20748;42.632;23.198;2023-01-30T04:34:28;92029.78;;;-2.94;100.00
34506;BME280;20748;42.632;23.198;2023-01-30T04:37:02;92034.94;;;-3.01;100.00
34506;BME280;20748;42.632;23.198;2023-01-30T04:39:35;92031.34;;;-2.93;100.00
34506;BME280;20748;42.632;23.198;2023-01-30T04:42:07;92030.13;;;-2.90;100.00
34506;BME280;20748;42.632;23.198;2023-01-30T04:44:46;92036.13;;;-2.85;100.00
34506;BME280;20748;42.632;23.198;2023-01-30T04:47:23;92023.31;;;-2.78;100.00
34506;BME280;20748;42.632;23.198;2023-01-30T04:49:55;92020.34;;;-2.75;100.00
34506;BME280;20748;42.632;23.198;2023-01-30T04:52:28;92016.13;;;-2.69;100.00
34506;BME280;20748;42.632;23.198;2023-01-30T04:55:00;92021.66;;;-2.72;100.00
34506;BME280;20748;42.632;23.198;2023-01-30T04:57:32;92023.44;;;-2.73;100.00
34506;BME280;20748;42.632;23.198;2023-01-30T05:00:05;92023.50;;;-2.79;100.00
34506;BME280;20748;42.632;23.198;2023-01-30T05:02:40;92004.56;;;-2.72;100.00
34506;BME280;20748;42.632;23.198;2023-01-30T05:05:12;92009.00;;;-2.67;100.00
34506;BME280;20748;42.632;23.198;2023-01-30T05:07:45;92005.03;;;-2.63;100.00
34506;BME280;20748;42.632;23.198;2023-01-30T05:10:17;91995.97;;;-2.59;100.00
34506;BME280;20748;42.632;23.198;2023-01-30T05:12:49;92001.63;;;-2.57;100.00
34506;BME280;20748;42.632;23.198;2023-01-30T05:15:21;92004.38;;;-2.58;100.00
34506;BME280;20748;42.632;23.198;2023-01-30T05:17:53;92001.75;;;-2.51;100.00
34506;BME280;20748;42.632;23.198;2023-01-30T05:20:25;91999.63;;;-2.54;100.00
34506;BME280;20748;42.632;23.198;2023-01-30T05:22:58;92002.66;;;-2.46;100.00
34506;BME280;20748;42.632;23.198;2023-01-30T05:25:30;92013.53;;;-2.50;100.00
34506;BME280;20748;42.632;23.198;2023-01-30T05:28:03;92008.59;;;-2.64;100.00
34506;BME280;20748;42.632;23.198;2023-01-30T05:30:35;92012.22;;;-2.72;100.00
34506;BME280;20748;42.632;23.198;2023-01-30T05:33:07;92019.97;;;-2.78;100.00
34506;BME280;20748;42.632;23.198;2023-01-30T05:35:44;92024.66;;;-2.75;100.00
34506;BME280;20748;42.632;23.198;2023-01-30T05:38:17;92013.78;;;-2.71;100.00
34506;BME280;20748;42.632;23.198;2023-01-30T05:40:56;92017.19;;;-2.77;100.00
34506;BME280;20748;42.632;23.198;2023-01-30T05:43:29;92016.38;;;-2.89;100.00
34506;BME280;20748;42.632;23.198;2023-01-30T05:46:02;92013.13;;;-2.97;100.00
34506;BME280;20748;42.632;23.198;2023-01-30T05:48:34;92017.28;;;-3.02;100.00
34506;BME280;20748;42.632;23.198;2023-01-30T05:51:13;92012.25;;;-2.90;100.00
34506;BME280;20748;42.632;23.198;2023-01-30T05:53:47;92017.06;;;-2.82;100.00
34506;BME280;20748;42.632;23.198;2023-01-30T05:56:19;92023.09;;;-2.76;100.00
34506;BME280;20748;42.632;23.198;2023-01-30T05:58:52;92013.28;;;-2.79;100.00
34506;BME280;20748;42.632;23.198;2023-01-30T06:01:24;92017.13;;;-2.70;100.00
34506;BME280;20748;42.632;23.198;2023-01-30T06:03:57;92028.25;;;-2.64;100.00
34506;BME280;20748;42.632;23.198;2023-01-30T06:06:29;92029.38;;;-2.60;100.00
34506;BME280;20748;42.632;23.198;2023-01-30T06:09:02;92024.06;;;-2.59;100.00
34506;BME280;20748;42.632;23.198;2023-01-30T06:11:35;92023.06;;;-2.58;100.00
34506;BME280;20748;42.632;23.198;2023-01-30T06:14:07;92026.31;;;-2.50;100.00
34506;BME280;20748;42.632;23.198;2023-01-30T06:16:39;92017.22;;;-2.46;100.00
34506;BME280;20748;42.632;23.198;2023-01-30T06:19:11;92019.19;;;-2.48;100.00
34506;BME280;20748;42.632;23.198;2023-01-30T06:21:43;92011.44;;;-2.72;100.00
34506;BME280;20748;42.632;23.198;2023-01-30T06:24:16;92007.94;;;-2.59;100.00
34506;BME280;20748;42.632;23.198;2023-01-30T06:26:48;92010.50;;;-2.59;100.00
34506;BME280;20748;42.632;23.198;2023-01-30T06:29:20;92012.97;;;-2.52;100.00
34506;BME280;20748;42.632;23.198;2023-01-30T06:31:52;92000.41;;;-2.54;100.00
34506;BME280;20748;42.632;23.198;2023-01-30T06:34:24;92011.53;;;-2.48;100.00
34506;BME280;20748;42.632;23.198;2023-01-30T06:36:56;92020.78;;;-2.47;100.00
34506;BME280;20748;42.632;23.198;2023-01-30T06:39:29;92011.91;;;-2.45;100.00
34506;BME280;20748;42.632;23.198;2023-01-30T06:42:01;92013.44;;;-2.44;100.00
34506;BME280;20748;42.632;23.198;2023-01-30T06:44:33;92018.91;;;-2.40;100.00
34506;BME280;20748;42.632;23.198;2023-01-30T06:47:05;92019.09;;;-2.41;100.00
34506;BME280;20748;42.632;23.198;2023-01-30T06:49:37;92016.91;;;-2.38;100.00
34506;BME280;20748;42.632;23.198;2023-01-30T06:52:09;92017.34;;;-2.41;100.00
34506;BME280;20748;42.632;23.198;2023-01-30T06:54:42;92018.34;;;-2.42;100.00
34506;BME280;20748;42.632;23.198;2023-01-30T06:57:14;92025.22;;;-2.43;100.00
34506;BME280;20748;42.632;23.198;2023-01-30T06:59:46;92020.13;;;-2.43;100.00
34506;BME280;20748;42.632;23.198;2023-01-30T07:02:18;92022.22;;;-2.39;100.00
34506;BME280;20748;42.632;23.198;2023-01-30T07:04:50;92031.88;;;-2.41;100.00
34506;BME280;20748;42.632;23.198;2023-01-30T07:07:22;92036.88;;;-2.47;100.00
34506;BME280;20748;42.632;23.198;2023-01-30T07:09:55;92030.28;;;-2.54;100.00
34506;BME280;20748;42.632;23.198;2023-01-30T07:12:38;92028.94;;;-2.57;100.00
34506;BME280;20748;42.632;23.198;2023-01-30T07:15:10;92032.34;;;-2.63;100.00
34506;BME280;20748;42.632;23.198;2023-01-30T07:17:42;92031.84;;;-2.53;100.00
34506;BME280;20748;42.632;23.198;2023-01-30T07:20:15;92034.53;;;-2.48;100.00
34506;BME280;20748;42.632;23.198;2023-01-30T07:22:50;92045.47;;;-2.41;100.00
34506;BME280;20748;42.632;23.198;2023-01-30T07:25:23;92034.88;;;-2.45;100.00
34506;BME280;20748;42.632;23.198;2023-01-30T07:27:56;92038.78;;;-2.42;100.00
34506;BME280;20748;42.632;23.198;2023-01-30T07:30:30;92039.00;;;-2.44;100.00
34506;BME280;20748;42.632;23.198;2023-01-30T07:33:03;92033.78;;;-2.37;100.00
34506;BME280;20748;42.632;23.198;2023-01-30T07:35:35;92041.28;;;-2.23;99.63
34506;BME280;20748;42.632;23.198;2023-01-30T07:38:08;92042.50;;;-2.26;100.00
34506;BME280;20748;42.632;23.198;2023-01-30T07:40:41;92045.63;;;-2.24;100.00
34506;BME280;20748;42.632;23.198;2023-01-30T07:43:13;92055.56;;;-2.34;99.84
34506;BME280;20748;42.632;23.198;2023-01-30T07:45:46;92054.34;;;-2.32;99.95
34506;BME280;20748;42.632;23.198;2023-01-30T07:48:18;92048.97;;;-2.23;98.41
34506;BME280;20748;42.632;23.198;2023-01-30T07:50:53;92055.31;;;-2.14;97.62
34506;BME280;20748;42.632;23.198;2023-01-30T07:53:26;92046.47;;;-2.30;98.38
34506;BME280;20748;42.632;23.198;2023-01-30T07:56:04;92044.19;;;-2.50;99.24
34506;BME280;20748;42.632;23.198;2023-01-30T07:58:37;92048.34;;;-2.37;98.81
34506;BME280;20748;42.632;23.198;2023-01-30T08:01:09;92043.66;;;-2.40;97.99
34506;BME280;20748;42.632;23.198;2023-01-30T08:03:41;92036.56;;;-2.38;99.03
34506;BME280;20748;42.632;23.198;2023-01-30T08:06:16;92009.09;;;-2.43;98.11
34506;BME280;20748;42.632;23.198;2023-01-30T08:08:48;92018.97;;;-2.16;97.40
34506;BME280;20748;42.632;23.198;2023-01-30T08:11:21;92026.63;;;-2.16;96.30
34506;BME280;20748;42.632;23.198;2023-01-30T08:13:53;92016.50;;;-2.23;96.22
34506;BME280;20748;42.632;23.198;2023-01-30T08:16:25;92023.47;;;-2.30;95.72
34506;BME280;20748;42.632;23.198;2023-01-30T08:18:57;92027.38;;;-2.27;97.22
34506;BME280;20748;42.632;23.198;2023-01-30T08:21:29;92021.97;;;-2.50;98.36
34506;BME280;20748;42.632;23.198;2023-01-30T08:24:02;92021.50;;;-2.59;99.58
34506;BME280;20748;42.632;23.198;2023-01-30T08:26:34;92012.78;;;-2.39;99.59
34506;BME280;20748;42.632;23.198;2023-01-30T08:29:07;92016.47;;;-2.35;99.09
34506;BME280;20748;42.632;23.198;2023-01-30T08:31:39;92010.38;;;-2.34;99.03
34506;BME280;20748;42.632;23.198;2023-01-30T08:34:11;92009.09;;;-2.43;97.99
34506;BME280;20748;42.632;23.198;2023-01-30T08:36:43;92005.59;;;-2.61;98.09
34506;BME280;20748;42.632;23.198;2023-01-30T08:39:17;92004.66;;;-2.48;99.52
34506;BME280;20748;42.632;23.198;2023-01-30T08:41:50;92003.66;;;-2.47;100.00
34506;BME280;20748;42.632;23.198;2023-01-30T08:44:22;91996.91;;;-2.72;100.00
34506;BME280;20748;42.632;23.198;2023-01-30T08:46:54;91999.75;;;-2.80;100.00
34506;BME280;20748;42.632;23.198;2023-01-30T08:49:26;91999.63;;;-2.85;100.00
34506;BME280;20748;42.632;23.198;2023-01-30T08:51:58;91994.00;;;-2.75;100.00
34506;BME280;20748;42.632;23.198;2023-01-30T08:57:05;91993.53;;;-2.84;99.31
34506;BME280;20748;42.632;23.198;2023-01-30T08:59:37;91995.25;;;-2.97;98.50
34506;BME280;20748;42.632;23.198;2023-01-30T09:02:09;91994.56;;;-2.73;98.82
34506;BME280;20748;42.632;23.198;2023-01-30T09:04:41;91984.75;;;-2.58;99.08
34506;BME280;20748;42.632;23.198;2023-01-30T09:07:13;91983.78;;;-2.75;98.70
34506;BME280;20748;42.632;23.198;2023-01-30T09:09:46;91974.59;;;-2.95;100.00
34506;BME280;20748;42.632;23.198;2023-01-30T09:12:19;91975.31;;;-3.25;100.00
34506;BME280;20748;42.632;23.198;2023-01-30T09:14:51;91977.53;;;-3.10;100.00
34506;BME280;20748;42.632;23.198;2023-01-30T09:17:25;91974.44;;;-2.81;100.00
34506;BME280;20748;42.632;23.198;2023-01-30T09:19:58;91986.88;;;-3.04;100.00
34506;BME280;20748;42.632;23.198;2023-01-30T09:22:30;91981.72;;;-3.16;100.00
34506;BME280;20748;42.632;23.198;2023-01-30T09:25:03;91979.66;;;-3.07;100.00
34506;BME280;20748;42.632;23.198;2023-01-30T09:27:35;91983.91;;;-3.19;100.00
34506;BME280;20748;42.632;23.198;2023-01-30T09:30:08;91974.50;;;-3.19;100.00
34506;BME280;20748;42.632;23.198;2023-01-30T09:32:41;91976.94;;;-3.12;100.00
34506;BME280;20748;42.632;23.198;2023-01-30T09:35:13;91971.69;;;-2.99;100.00
34506;BME280;20748;42.632;23.198;2023-01-30T09:37:45;91971.81;;;-2.93;100.00
34506;BME280;20748;42.632;23.198;2023-01-30T09:40:19;91979.09;;;-3.09;100.00
34506;BME280;20748;42.632;23.198;2023-01-30T09:43:00;91973.69;;;-3.01;100.00
34506;BME280;20748;42.632;23.198;2023-01-30T09:45:42;91968.78;;;-2.84;100.00
34506;BME280;20748;42.632;23.198;2023-01-30T09:48:16;91961.00;;;-3.07;100.00
34506;BME280;20748;42.632;23.198;2023-01-30T09:50:55;91953.09;;;-2.87;100.00
34506;BME280;20748;42.632;23.198;2023-01-30T09:53:35;91958.72;;;-2.97;100.00
34506;BME280;20748;42.632;23.198;2023-01-30T09:56:09;91948.22;;;-2.89;100.00
34506;BME280;20748;42.632;23.198;2023-01-30T09:58:43;91944.88;;;-2.89;100.00
34506;BME280;20748;42.632;23.198;2023-01-30T10:01:19;91949.91;;;-2.83;99.51
34506;BME280;20748;42.632;23.198;2023-01-30T10:03:56;91933.84;;;-2.59;100.00
34506;BME280;20748;42.632;23.198;2023-01-30T10:06:30;91940.34;;;-3.06;99.73
34506;BME280;20748;42.632;23.198;2023-01-30T10:09:07;91934.34;;;-2.81;100.00
34506;BME280;20748;42.632;23.198;2023-01-30T10:11:52;91932.38;;;-2.79;100.00
34506;BME280;20748;42.632;23.198;2023-01-30T10:17:22;91918.03;;;-2.80;99.69
34506;BME280;20748;42.632;23.198;2023-01-30T10:20:02;91912.75;;;-2.97;98.85
34506;BME280;20748;42.632;23.198;2023-01-30T10:22:45;91903.53;;;-2.98;99.66
34506;BME280;20748;42.632;23.198;2023-01-30T10:25:23;91898.94;;;-2.77;99.40
34506;BME280;20748;42.632;23.198;2023-01-30T10:27:59;91894.66;;;-2.65;98.05
34506;BME280;20748;42.632;23.198;2023-01-30T10:30:33;91883.56;;;-2.59;97.07
34506;BME280;20748;42.632;23.198;2023-01-30T10:33:07;91892.44;;;-2.49;96.77
34506;BME280;20748;42.632;23.198;2023-01-30T10:35:54;91882.22;;;-2.49;97.01
34506;BME280;20748;42.632;23.198;2023-01-30T10:38:29;91882.69;;;-2.52;96.81
34506;BME280;20748;42.632;23.198;2023-01-30T10:41:05;91866.78;;;-2.43;96.33
34506;BME280;20748;42.632;23.198;2023-01-30T10:43:41;91856.34;;;-2.65;95.68
34506;BME280;20748;42.632;23.198;2023-01-30T10:46:18;91856.34;;;-2.65;96.93
34506;BME280;20748;42.632;23.198;2023-01-30T10:48:55;91862.44;;;-2.66;98.00
34506;BME280;20748;42.632;23.198;2023-01-30T10:51:34;91852.22;;;-2.66;98.00
34506;BME280;20748;42.632;23.198;2023-01-30T10:54:10;91840.13;;;-2.47;97.42
34506;BME280;20748;42.632;23.198;2023-01-30T10:56:46;91836.56;;;-2.46;95.83
34506;BME280;20748;42.632;23.198;2023-01-30T10:59:22;91832.78;;;-2.79;98.39
34506;BME280;20748;42.632;23.198;2023-01-30T11:01:57;91823.22;;;-2.72;99.02
34506;BME280;20748;42.632;23.198;2023-01-30T11:04:32;91820.53;;;-2.77;98.70
34506;BME280;20748;42.632;23.198;2023-01-30T11:07:06;91814.25;;;-2.62;99.07
34506;BME280;20748;42.632;23.198;2023-01-30T11:09:40;91820.09;;;-2.86;98.56
34506;BME280;20748;42.632;23.198;2023-01-30T11:12:13;91807.31;;;-2.86;96.34
34506;BME280;20748;42.632;23.198;2023-01-30T11:14:49;91811.78;;;-2.69;95.02
34506;BME280;20748;42.632;23.198;2023-01-30T11:17:27;91804.47;;;-2.41;96.61
34506;BME280;20748;42.632;23.198;2023-01-30T11:20:06;91802.69;;;-2.53;96.69
34506;BME280;20748;42.632;23.198;2023-01-30T11:22:44;91798.03;;;-2.56;95.03
34506;BME280;20748;42.632;23.198;2023-01-30T11:25:17;91790.56;;;-2.70;96.15
34506;BME280;20748;42.632;23.198;2023-01-30T11:27:51;91782.81;;;-2.51;94.96
34506;BME280;20748;42.632;23.198;2023-01-30T11:30:25;91777.59;;;-2.56;96.09
34506;BME280;20748;42.632;23.198;2023-01-30T11:33:05;91771.47;;;-2.43;95.27
34506;BME280;20748;42.632;23.198;2023-01-30T11:35:41;91771.25;;;-2.30;93.77
34506;BME280;20748;42.632;23.198;2023-01-30T11:38:19;91768.38;;;-2.33;92.65
34506;BME280;20748;42.632;23.198;2023-01-30T11:41:00;91760.59;;;-2.38;93.54
34506;BME280;20748;42.632;23.198;2023-01-30T11:43:32;91758.38;;;-2.59;94.84
34506;BME280;20748;42.632;23.198;2023-01-30T11:46:06;91756.69;;;-2.41;96.03
34506;BME280;20748;42.632;23.198;2023-01-30T11:48:40;91753.38;;;-2.53;96.78
34506;BME280;20748;42.632;23.198;2023-01-30T11:51:35;91736.41;;;-2.60;96.23
34506;BME280;20748;42.632;23.198;2023-01-30T11:54:11;91736.59;;;-2.61;98.35
34506;BME280;20748;42.632;23.198;2023-01-30T11:56:45;91730.28;;;-2.59;97.20
34506;BME280;20748;42.632;23.198;2023-01-30T11:59:22;91722.63;;;-2.59;98.19
34506;BME280;20748;42.632;23.198;2023-01-30T12:02:00;91731.50;;;-2.61;99.12
34506;BME280;20748;42.632;23.198;2023-01-30T12:04:34;91721.50;;;-2.63;99.72
34506;BME280;20748;42.632;23.198;2023-01-30T12:07:10;91719.06;;;-2.58;100.00
34506;BME280;20748;42.632;23.198;2023-01-30T12:09:46;91708.25;;;-2.48;98.05
34506;BME280;20748;42.632;23.198;2023-01-30T12:12:28;91700.47;;;-2.41;97.04
34506;BME280;20748;42.632;23.198;2023-01-30T12:15:05;91692.66;;;-2.22;97.24
34506;BME280;20748;42.632;23.198;2023-01-30T12:17:43;91698.47;;;-2.27;96.16
34506;BME280;20748;42.632;23.198;2023-01-30T12:20:20;91694.47;;;-2.47;96.34
34506;BME280;20748;42.632;23.198;2023-01-30T12:22:57;91698.25;;;-2.37;96.33
34506;BME280;20748;42.632;23.198;2023-01-30T12:25:34;91694.00;;;-2.32;94.67
34506;BME280;20748;42.632;23.198;2023-01-30T12:28:11;91695.91;;;-2.39;93.49
34506;BME280;20748;42.632;23.198;2023-01-30T12:30:46;91686.06;;;-2.47;93.65
34506;BME280;20748;42.632;23.198;2023-01-30T12:33:21;91684.72;;;-2.50;92.60
34506;BME280;20748;42.632;23.198;2023-01-30T12:35:57;91680.53;;;-2.68;93.02
34506;BME280;20748;42.632;23.198;2023-01-30T12:38:43;91675.66;;;-2.81;93.53
34506;BME280;20748;42.632;23.198;2023-01-30T12:41:22;91681.09;;;-2.78;95.01
34506;BME280;20748;42.632;23.198;2023-01-30T12:44:02;91670.88;;;-2.78;94.79
34506;BME280;20748;42.632;23.198;2023-01-30T12:46:43;91664.53;;;-2.75;93.73
34506;BME280;20748;42.632;23.198;2023-01-30T12:49:35;91663.41;;;-2.56;95.45
34506;BME280;20748;42.632;23.198;2023-01-30T12:52:20;91666.94;;;-2.45;93.84
34506;BME280;20748;42.632;23.198;2023-01-30T12:54:59;91655.44;;;-2.71;94.26
34506;BME280;20748;42.632;23.198;2023-01-30T12:57:34;91648.50;;;-2.47;96.35
34506;BME280;20748;42.632;23.198;2023-01-30T13:00:27;91651.94;;;-2.53;93.43
34506;BME280;20748;42.632;23.198;2023-01-30T13:03:10;91654.19;;;-2.57;93.79
34506;BME280;20748;42.632;23.198;2023-01-30T13:05:46;91647.84;;;-2.42;93.53
34506;BME280;20748;42.632;23.198;2023-01-30T13:08:28;91647.16;;;-2.37;93.27
34506;BME280;20748;42.632;23.198;2023-01-30T13:11:08;91650.94;;;-2.40;91.84
34506;BME280;20748;42.632;23.198;2023-01-30T13:13:45;91648.69;;;-2.36;93.66
34506;BME280;20748;42.632;23.198;2023-01-30T13:16:22;91646.72;;;-2.46;92.82
34506;BME280;20748;42.632;23.198;2023-01-30T13:19:00;91652.84;;;-2.59;92.54
34506;BME280;20748;42.632;23.198;2023-01-30T13:21:35;91644.75;;;-2.68;91.26
34506;BME280;20748;42.632;23.198;2023-01-30T13:24:13;91645.66;;;-2.62;91.79
34506;BME280;20748;42.632;23.198;2023-01-30T13:26:49;91638.00;;;-2.74;91.39
34506;BME280;20748;42.632;23.198;2023-01-30T13:29:25;91638.53;;;-2.60;92.87